Time;durP1;ratioP1;P1;durP2;ratioP2;P2;SDS_P1;SDS_P2;PMS_P1;PMS_P2;Temp;Humidity;BMP_temperature;BMP_pressure;BME280_temperature;BME280_humidity;BME280_pressure;Samples;Min_cycle;Max_cycle;Signal;HPM_P1;HPM_P2
2022/08/02 00:00:01;;;;;;;3.42;3.25;;;;;;;25.14;54.29;99036.25;5111498;28;20201;-62
2022/08/02 00:02:28;;;;;;;3.45;3.25;;;;;;;25.06;54.29;99039.63;5111548;28;20194;-62
2022/08/02 00:04:56;;;;;;;3.22;3.05;;;;;;;25.00;54.91;99042.88;5111352;28;20227;-62
2022/08/02 00:07:23;;;;;;;3.58;3.38;;;;;;;24.94;54.78;99043.47;5111391;28;20590;-62
2022/08/02 00:09:50;;;;;;;3.15;2.95;;;;;;;24.95;54.75;99039.81;5111269;28;20281;-62
2022/08/02 00:12:17;;;;;;;3.65;2.90;;;;;;;24.95;54.81;99043.31;5111424;28;20289;-60
2022/08/02 00:14:44;;;;;;;3.63;3.22;;;;;;;24.90;55.04;99047.38;5109963;28;20225;-61
2022/08/02 00:17:11;;;;;;;3.33;3.03;;;;;;;24.88;55.06;99049.31;5105210;28;20687;-61
2022/08/02 00:19:38;;;;;;;3.97;3.30;;;;;;;24.79;55.38;99045.75;5111047;28;20236;-62
2022/08/02 00:22:06;;;;;;;3.42;3.22;;;;;;;24.74;55.72;99047.13;5110652;28;20209;-61
2022/08/02 00:24:33;;;;;;;3.58;3.22;;;;;;;24.68;55.90;99047.72;5110617;28;20190;-61
2022/08/02 00:27:02;;;;;;;3.92;3.70;;;;;;;24.69;56.01;99049.41;5110688;28;20195;-61
2022/08/02 00:29:30;;;;;;;3.28;3.00;;;;;;;24.73;55.79;99053.44;5110565;28;20271;-62
2022/08/02 00:31:57;;;;;;;4.07;3.78;;;;;;;24.75;55.70;99052.31;5110715;28;20202;-62
2022/08/02 00:34:23;;;;;;;3.13;3.00;;;;;;;24.64;55.93;99041.88;5110666;27;20309;-61
2022/08/02 00:36:50;;;;;;;3.45;3.20;;;;;;;24.56;55.84;99042.59;5110929;28;20190;-62
2022/08/02 00:39:19;;;;;;;3.42;3.08;;;;;;;24.52;56.20;99035.91;5110445;28;20213;-61
2022/08/02 00:41:47;;;;;;;3.75;3.05;;;;;;;24.58;55.92;99039.81;5110449;28;20265;-60
2022/08/02 00:44:15;;;;;;;4.70;3.53;;;;;;;24.50;56.11;99040.50;5110748;28;20607;-61
2022/08/02 00:46:42;;;;;;;5.28;3.45;;;;;;;24.51;56.36;99039.53;5110563;28;20452;-61
2022/08/02 00:49:09;;;;;;;4.18;3.30;;;;;;;24.53;56.20;99047.34;5110670;28;20584;-62
2022/08/02 00:51:36;;;;;;;5.22;3.55;;;;;;;24.48;56.05;99042.50;5110360;28;20216;-61
2022/08/02 00:54:04;;;;;;;3.85;3.65;;;;;;;24.49;56.30;99045.97;5110362;28;20219;-60
2022/08/02 00:56:32;;;;;;;4.30;3.30;;;;;;;24.45;56.77;99048.06;5110624;28;20739;-62
2022/08/02 00:58:59;;;;;;;3.83;2.97;;;;;;;24.45;56.51;99047.25;5110572;28;20199;-62
2022/08/02 01:01:38;;;;;;;3.53;3.30;;;;;;;24.40;56.59;99044.16;5110393;28;20258;-61
2022/08/02 01:04:06;;;;;;;3.70;3.50;;;;;;;24.45;56.61;99045.41;5110192;28;20691;-63
2022/08/02 01:06:33;;;;;;;3.97;3.58;;;;;;;24.42;56.22;99050.16;5110361;28;20205;-62
2022/08/02 01:09:01;;;;;;;4.53;3.30;;;;;;;24.42;56.01;99050.16;5110211;28;20225;-61
2022/08/02 01:11:28;;;;;;;3.85;3.55;;;;;;;24.46;55.81;99039.13;5110175;28;20205;-62
2022/08/02 01:14:00;;;;;;;3.47;3.25;;;;;;;24.42;56.13;99034.25;5110145;28;20218;-59
2022/08/02 01:16:31;;;;;;;3.50;3.20;;;;;;;24.36;56.05;99035.69;5109917;28;20212;-59
2022/08/02 01:19:06;;;;;;;3.10;2.90;;;;;;;24.34;56.18;99029.66;5110040;28;20191;-62
2022/08/02 01:21:44;;;;;;;3.45;3.25;;;;;;;24.33;55.89;99033.31;5110306;28;20194;-60
2022/08/02 01:24:30;;;;;;;4.78;3.38;;;;;;;24.24;56.26;99040.31;5109854;28;20186;-59
2022/08/02 01:27:09;;;;;;;4.22;3.70;;;;;;;24.18;56.39;99035.50;5109663;28;20194;-59
2022/08/02 01:29:41;;;;;;;3.60;3.30;;;;;;;24.14;56.77;99036.81;5110221;28;20571;-60
2022/08/02 01:32:11;;;;;;;3.45;3.25;;;;;;;24.14;56.96;99036.81;5110065;28;20216;-61
2022/08/02 01:34:43;;;;;;;3.22;3.08;;;;;;;24.14;56.78;99035.97;5109821;28;20231;-62
2022/08/02 01:37:18;;;;;;;3.92;3.38;;;;;;;24.05;57.10;99039.44;5110024;28;20199;-61
2022/08/02 01:39:47;;;;;;;4.72;3.22;;;;;;;23.98;57.43;99039.16;5110195;28;20229;-60
2022/08/02 01:42:15;;;;;;;3.63;3.20;;;;;;;23.98;57.52;99033.03;5109772;28;20230;-60
2022/08/02 01:44:45;;;;;;;4.05;3.13;;;;;;;23.85;58.05;99030.66;5109895;28;20197;-60
2022/08/02 01:47:18;;;;;;;3.65;3.10;;;;;;;23.82;57.88;99022.97;5109922;28;20647;-60
2022/08/02 01:49:48;;;;;;;4.05;3.45;;;;;;;23.78;58.01;99025.09;5109938;28;20256;-59
2022/08/02 01:52:22;;;;;;;3.28;3.08;;;;;;;23.76;57.95;99019.09;5109835;28;20198;-61
2022/08/02 01:54:52;;;;;;;3.10;3.00;;;;;;;23.70;58.04;99016.97;5109917;28;20774;-61
2022/08/02 01:57:21;;;;;;;2.97;2.78;;;;;;;23.68;58.29;99021.63;5109918;28;20200;-61
2022/08/02 01:59:51;;;;;;;2.80;2.60;;;;;;;23.62;58.00;99016.84;5110123;28;20582;-61
2022/08/02 02:02:20;;;;;;;2.88;2.67;;;;;;;23.48;58.10;98990.72;5109651;28;20203;-62
2022/08/02 02:04:50;;;;;;;3.65;2.90;;;;;;;23.71;57.93;99018.66;5109664;28;20228;-61
2022/08/02 02:07:18;;;;;;;3.17;2.97;;;;;;;23.62;57.60;99000.94;5109933;28;20195;-61
2022/08/02 02:09:46;;;;;;;3.20;3.00;;;;;;;23.66;57.75;99015.59;5109972;28;20217;-62
2022/08/02 02:12:14;;;;;;;3.28;3.15;;;;;;;23.65;58.13;99018.41;5109682;28;20725;-61
2022/08/02 02:14:42;;;;;;;3.10;2.90;;;;;;;23.61;57.94;99003.75;5109595;28;20232;-63
2022/08/02 02:17:13;;;;;;;3.03;2.72;;;;;;;23.67;58.07;99004.03;5109603;28;20295;-62
2022/08/02 02:19:42;;;;;;;3.45;3.25;;;;;;;23.56;58.20;99003.34;5100015;28;20199;-63
2022/08/02 02:22:09;;;;;;;5.13;3.08;;;;;;;23.59;58.26;99014.47;5097093;28;20611;-62
2022/08/02 02:24:36;;;;;;;3.03;2.90;;;;;;;23.57;58.39;99012.97;5098661;28;20190;-62
2022/08/02 02:27:04;;;;;;;2.75;2.65;;;;;;;23.57;58.38;99012.97;5098531;28;20299;-62
2022/08/02 02:29:33;;;;;;;3.50;3.30;;;;;;;23.46;58.40;99003.31;5096873;28;20199;-62
2022/08/02 02:32:00;;;;;;;3.00;2.80;;;;;;;23.46;58.67;98998.84;5098253;28;20187;-61
2022/08/02 02:34:33;;;;;;;2.70;2.50;;;;;;;23.47;58.64;99011.13;5099032;28;21260;-62
2022/08/02 02:37:03;;;;;;;3.30;3.13;;;;;;;23.45;58.85;99012.22;5098147;28;20589;-62
2022/08/02 02:39:32;;;;;;;3.00;2.72;;;;;;;23.38;58.58;99013.72;5099717;28;20192;-63
2022/08/02 02:42:03;;;;;;;2.60;2.50;;;;;;;23.43;58.47;99009.69;5106180;28;20226;-57
2022/08/02 02:44:31;;;;;;;2.60;2.50;;;;;;;23.40;58.49;99014.44;5096713;28;20223;-56
2022/08/02 02:47:00;;;;;;;3.03;2.92;;;;;;;23.38;58.60;99001.31;5090919;28;20607;-58
2022/08/02 02:49:32;;;;;;;2.88;2.78;;;;;;;23.42;58.30;99020.44;5091445;28;20273;-61
2022/08/02 02:52:00;;;;;;;2.75;2.55;;;;;;;23.41;58.40;99008.16;5092011;28;20215;-61
2022/08/02 02:54:28;;;;;;;4.97;2.65;;;;;;;23.39;58.23;99010.09;5091836;28;20231;-60
2022/08/02 02:56:57;;;;;;;6.22;3.00;;;;;;;23.37;58.38;99007.59;5091814;28;20614;-60
2022/08/02 02:59:24;;;;;;;6.05;2.95;;;;;;;23.37;58.15;99012.03;5091794;28;20241;-60
2022/08/02 03:01:52;;;;;;;3.33;2.63;;;;;;;23.38;58.16;99019.03;5099357;28;20222;-60
2022/08/02 03:04:21;;;;;;;2.97;2.70;;;;;;;23.38;58.20;99019.03;5101318;28;20307;-61
2022/08/02 03:06:49;;;;;;;2.85;2.72;;;;;;;23.36;58.36;99010.41;5100433;28;20225;-61
2022/08/02 03:09:16;;;;;;;2.95;2.70;;;;;;;23.32;58.83;99015.13;5091956;28;20318;-60
2022/08/02 03:11:43;;;;;;;3.38;2.85;;;;;;;23.33;58.63;99015.97;5097106;28;20226;-60
2022/08/02 03:14:11;;;;;;;3.70;3.40;;;;;;;23.28;58.79;99020.81;5091468;28;20226;-60
2022/08/02 03:16:47;;;;;;;3.28;3.08;;;;;;;23.27;58.95;99021.78;5098716;28;20218;-61
2022/08/02 03:19:14;;;;;;;6.20;3.38;;;;;;;23.11;59.59;99023.16;5091323;28;20218;-60
2022/08/02 03:21:42;;;;;;;3.28;3.08;;;;;;;23.18;59.37;99012.84;5091985;28;20229;-60
2022/08/02 03:24:11;;;;;;;3.92;3.50;;;;;;;23.17;59.22;99021.78;5091608;28;20261;-57
2022/08/02 03:26:38;;;;;;;3.63;3.42;;;;;;;23.12;59.61;99026.66;5091449;28;20222;-60
2022/08/02 03:29:05;;;;;;;6.47;3.60;;;;;;;23.10;59.68;99026.78;5091746;28;20215;-61
2022/08/02 03:31:32;;;;;;;3.97;3.67;;;;;;;23.14;59.86;99025.53;5091198;28;20294;-61
2022/08/02 03:34:01;;;;;;;3.90;3.53;;;;;;;23.13;59.71;99025.69;5108707;28;20229;-61
2022/08/02 03:36:33;;;;;;;3.80;3.42;;;;;;;23.09;60.17;99026.91;5112012;28;20223;-61
2022/08/02 03:39:01;;;;;;;3.60;3.40;;;;;;;23.01;60.53;99032.06;5109523;28;20229;-60
2022/08/02 03:41:30;;;;;;;5.00;3.53;;;;;;;23.07;60.66;99037.63;5104290;28;20234;-60
2022/08/02 03:43:59;;;;;;;3.85;3.55;;;;;;;23.06;60.82;99033.31;5091137;28;20242;-59
2022/08/02 03:46:26;;;;;;;9.75;3.72;;;;;;;23.08;61.07;99041.13;5101410;28;20222;-62
2022/08/02 03:48:55;;;;;;;3.53;3.33;;;;;;;23.10;61.01;99042.66;5098149;28;20603;-61
2022/08/02 03:51:23;;;;;;;4.82;3.58;;;;;;;23.22;60.75;99042.56;5097677;28;20294;-61
2022/08/02 03:53:50;;;;;;;3.80;3.33;;;;;;;23.22;60.95;99047.84;5097395;28;20222;-61
2022/08/02 03:56:18;;;;;;;4.05;3.10;;;;;;;23.21;61.04;99040.88;5097470;28;20219;-61
2022/08/02 03:58:47;;;;;;;3.70;3.40;;;;;;;23.50;59.95;99053.22;5098793;28;20218;-60
2022/08/02 04:01:13;;;;;;;5.50;3.42;;;;;;;24.59;56.52;99052.09;5098672;28;20313;-61
2022/08/02 04:03:40;;;;;;;4.18;2.97;;;;;;;26.12;51.48;99054.88;5099056;28;20223;-60
2022/08/02 04:06:07;;;;;;;2.90;2.70;;;;;;;27.80;46.55;99054.25;5097068;28;20314;-61
2022/08/02 04:08:34;;;;;;;3.20;3.00;;;;;;;29.44;42.44;99061.84;5096959;28;20600;-61
2022/08/02 04:13:47;;;;;;;3.25;3.08;;;;;;;32.03;36.10;99067.22;5099641;28;20202;-62
2022/08/02 04:16:18;;;;;;;4.22;3.08;;;;;;;32.81;34.29;99076.16;5105052;28;20226;-61
2022/08/02 04:18:53;;;;;;;3.30;2.40;;;;;;;33.62;33.09;99079.88;5097670;28;20201;-62
2022/08/02 04:21:24;;;;;;;2.80;2.30;;;;;;;34.86;31.07;99083.75;5102759;28;20213;-62
2022/08/02 04:23:52;;;;;;;4.55;2.40;;;;;;;35.69;29.85;99089.25;5110596;28;20680;-62
2022/08/02 04:26:20;;;;;;;5.43;2.65;;;;;;;36.71;28.31;99086.28;5109879;28;20191;-62
2022/08/02 04:28:49;;;;;;;2.30;2.20;;;;;;;38.05;26.86;99095.25;5109487;28;20205;-63
2022/08/02 04:31:17;;;;;;;2.78;2.53;;;;;;;38.84;25.85;99083.97;5109175;28;20283;-58
2022/08/02 04:33:45;;;;;;;5.85;2.58;;;;;;;39.35;25.46;99104.09;5109137;28;20253;-58
2022/08/02 04:36:13;;;;;;;5.07;2.75;;;;;;;39.71;24.78;99104.81;5107822;28;20228;-59
2022/08/02 04:38:41;;;;;;;2.60;2.40;;;;;;;39.31;24.81;99104.78;5107375;28;20198;-61
2022/08/02 04:41:08;;;;;;;2.53;2.33;;;;;;;39.25;24.50;99111.19;5108770;28;20307;-61
2022/08/02 04:43:35;;;;;;;2.97;2.42;;;;;;;39.73;24.19;99108.94;5098829;28;20604;-62
2022/08/02 04:46:04;;;;;;;4.80;2.70;;;;;;;40.25;23.94;99106.91;5089287;28;20195;-62
2022/08/02 04:48:31;;;;;;;5.45;2.70;;;;;;;40.51;23.41;99110.09;5089290;28;20199;-61
2022/08/02 04:50:58;;;;;;;2.92;2.58;;;;;;;41.10;22.92;99121.28;5089311;28;20202;-61
2022/08/02 04:53:25;;;;;;;4.63;2.25;;;;;;;40.26;23.71;99114.00;5089084;28;20265;-61
2022/08/02 04:55:52;;;;;;;3.30;2.05;;;;;;;40.46;23.50;99112.72;5089324;28;20396;-62
2022/08/02 04:58:18;;;;;;;3.00;2.75;;;;;;;40.70;23.47;99108.78;5097456;28;20191;-62
2022/08/02 05:00:45;;;;;;;3.35;3.10;;;;;;;41.37;22.92;99111.34;5100224;28;20206;-59
2022/08/02 05:03:14;;;;;;;6.95;2.65;;;;;;;41.62;22.41;99122.56;5097145;28;20625;-60
2022/08/02 05:05:41;;;;;;;3.30;2.53;;;;;;;41.49;22.40;99125.66;5093236;28;20726;-60
2022/08/02 05:08:08;;;;;;;5.15;3.70;;;;;;;41.42;22.22;99116.03;5097517;28;20195;-59
2022/08/02 05:10:35;;;;;;;4.35;3.50;;;;;;;41.91;21.91;99123.16;5099244;28;20281;-62
2022/08/02 05:13:04;;;;;;;4.57;3.42;;;;;;;42.61;21.42;99130.38;5108217;28;20204;-61
2022/08/02 05:15:31;;;;;;;7.82;4.22;;;;;;;42.32;21.36;99131.75;5109758;28;20228;-62
2022/08/02 05:17:58;;;;;;;9.13;5.35;;;;;;;42.38;21.24;99142.47;5110269;28;20284;-62
2022/08/02 05:20:27;;;;;;;5.30;4.57;;;;;;;42.58;20.34;99140.97;5109969;28;20198;-62
2022/08/02 05:22:53;;;;;;;5.53;5.22;;;;;;;42.56;20.45;99121.31;5109965;28;20197;-63
2022/08/02 05:25:21;;;;;;;4.45;3.58;;;;;;;43.40;20.32;99134.97;5110010;28;20750;-61
2022/08/02 05:27:47;;;;;;;7.10;6.50;;;;;;;42.52;20.64;99128.38;5109989;28;20675;-62
2022/08/02 05:30:14;;;;;;;4.45;4.18;;;;;;;42.20;20.90;99128.38;5109818;28;20194;-62
2022/08/02 05:32:49;;;;;;;7.07;6.18;;;;;;;42.01;21.47;99130.63;5109775;28;20197;-63
2022/08/02 05:35:18;;;;;;;4.25;3.88;;;;;;;42.34;20.91;99135.03;5109548;28;20221;-63
2022/08/02 05:37:47;;;;;;;6.10;4.38;;;;;;;42.29;20.96;99119.44;5109829;28;20198;-62
2022/08/02 05:40:14;;;;;;;5.18;4.65;;;;;;;42.44;21.02;99139.78;5109861;28;20224;-62
2022/08/02 05:42:41;;;;;;;6.65;5.97;;;;;;;42.15;20.57;99136.50;5109677;28;20202;-61
2022/08/02 05:45:09;;;;;;;5.85;3.72;;;;;;;42.51;20.19;99140.38;5109746;28;20200;-59
2022/08/02 05:47:36;;;;;;;4.00;3.70;;;;;;;42.82;20.18;99139.53;5109758;28;20690;-60
2022/08/02 05:50:03;;;;;;;5.35;3.78;;;;;;;42.44;20.22;99139.78;5109848;28;20196;-60
2022/08/02 05:52:41;;;;;;;5.55;4.43;;;;;;;42.56;19.98;99143.97;5110229;28;20585;-60
2022/08/02 05:55:14;;;;;;;5.93;5.50;;;;;;;42.78;19.11;99141.16;5109702;28;20208;-60
2022/08/02 05:57:48;;;;;;;5.45;2.75;;;;;;;42.80;19.28;99140.88;5103766;28;20683;-61
2022/08/02 06:00:16;;;;;;;6.43;3.45;;;;;;;43.32;18.86;99147.25;5089110;28;20603;-60
2022/08/02 06:02:54;;;;;;;4.22;4.03;;;;;;;42.96;18.88;99143.47;5088776;28;20198;-60
2022/08/02 06:05:22;;;;;;;4.75;4.45;;;;;;;42.77;19.74;99144.13;5088952;28;20205;-60
2022/08/02 06:07:50;;;;;;;5.22;4.15;;;;;;;42.61;19.21;99148.66;5089115;28;20281;-60
2022/08/02 06:10:21;;;;;;;6.28;3.92;;;;;;;42.35;19.67;99148.41;5088996;28;20195;-63
2022/08/02 06:12:50;;;;;;;3.88;3.47;;;;;;;42.11;19.51;99147.09;5089352;28;20203;-62
2022/08/02 06:15:18;;;;;;;3.83;2.45;;;;;;;40.89;20.93;99145.53;5093172;28;20191;-65
2022/08/02 06:17:46;;;;;;;5.13;3.40;;;;;;;41.03;20.72;99142.44;5093156;28;20205;-61
2022/08/02 06:20:14;;;;;;;4.47;2.60;;;;;;;40.90;21.17;99152.63;5093365;28;20586;-60
2022/08/02 06:22:43;;;;;;;3.17;2.83;;;;;;;41.64;20.49;99155.84;5093139;28;20194;-60
2022/08/02 06:25:11;;;;;;;3.00;2.80;;;;;;;41.78;20.68;99163.63;5092941;28;20203;-59
2022/08/02 06:27:40;;;;;;;5.00;2.65;;;;;;;41.88;19.76;99161.81;5092930;28;20199;-60
2022/08/02 06:30:08;;;;;;;3.08;2.63;;;;;;;41.86;20.25;99164.00;5092947;28;20190;-60
2022/08/02 06:32:36;;;;;;;4.68;2.67;;;;;;;41.63;20.55;99159.66;5092886;27;20333;-63
2022/08/02 06:35:04;;;;;;;4.43;2.42;;;;;;;41.11;20.94;99158.34;5092483;28;20218;-63
2022/08/02 06:37:38;;;;;;;4.97;3.50;;;;;;;41.11;20.94;99147.44;5091496;28;20218;-62
2022/08/02 06:40:11;;;;;;;3.38;3.10;;;;;;;41.08;21.46;99161.59;5092321;28;20221;-62
2022/08/02 06:42:50;;;;;;;3.08;2.88;;;;;;;41.42;21.06;99163.19;5091881;28;20719;-62
2022/08/02 06:45:18;;;;;;;2.75;2.50;;;;;;;41.18;21.38;99159.88;5092177;28;20229;-63
2022/08/02 06:47:45;;;;;;;11.38;2.90;;;;;;;41.31;21.06;99153.22;5091967;28;20223;-63
2022/08/02 06:50:12;;;;;;;10.05;2.80;;;;;;;40.81;21.67;99145.97;5094398;28;20692;-58
2022/08/02 06:52:39;;;;;;;4.00;2.92;;;;;;;40.57;21.66;99152.63;5091663;28;20583;-60
2022/08/02 06:55:07;;;;;;;9.10;3.25;;;;;;;40.66;21.95;99142.97;5090913;28;20731;-60
2022/08/02 06:57:34;;;;;;;3.92;2.35;;;;;;;40.89;21.53;99150.97;5091946;28;20226;-59
2022/08/02 07:00:07;;;;;;;4.50;2.53;;;;;;;40.35;22.07;99154.41;5091148;28;20669;-59
2022/08/02 07:02:35;;;;;;;3.97;3.60;;;;;;;40.21;22.21;99153.88;5112414;27;20190;-61
2022/08/02 07:05:03;;;;;;;5.65;2.60;;;;;;;39.79;22.51;99150.63;5112152;28;20598;-60
2022/08/02 07:07:30;;;;;;;3.35;3.15;;;;;;;39.79;22.59;99153.34;5112658;28;20579;-60
2022/08/02 07:09:58;;;;;;;3.92;3.63;;;;;;;39.49;23.57;99148.97;5112768;28;20267;-59
2022/08/02 07:12:25;;;;;;;3.55;3.25;;;;;;;39.22;24.28;99156.78;5112216;28;20194;-61
2022/08/02 07:14:52;;;;;;;4.38;3.72;;;;;;;39.18;23.47;99149.31;5112432;28;20198;-59
2022/08/02 07:17:20;;;;;;;5.40;3.35;;;;;;;39.22;23.11;99153.22;5112019;28;20524;-59
2022/08/02 07:19:47;;;;;;;4.78;2.33;;;;;;;38.63;24.02;99146.13;5112350;28;20281;-60
2022/08/02 07:22:14;;;;;;;3.42;2.55;;;;;;;38.41;24.48;99143.13;5112269;27;20193;-61
2022/08/02 07:24:41;;;;;;;3.97;3.67;;;;;;;38.21;24.15;99146.16;5111837;28;20198;-60
2022/08/02 07:27:08;;;;;;;4.80;3.20;;;;;;;38.22;24.59;99153.22;5112222;28;20192;-60
2022/08/02 07:29:35;;;;;;;4.07;2.80;;;;;;;38.46;23.93;99143.25;5111927;28;20209;-59
2022/08/02 07:32:02;;;;;;;3.35;3.05;;;;;;;38.56;24.84;99146.25;5112013;28;20272;-60
2022/08/02 07:34:30;;;;;;;5.38;3.70;;;;;;;39.16;23.42;99146.03;5112059;28;20277;-62
2022/08/02 07:36:57;;;;;;;3.65;3.08;;;;;;;39.91;22.67;99141.38;5111622;28;20309;-60
2022/08/02 07:39:24;;;;;;;4.05;2.40;;;;;;;40.25;22.13;99136.84;5111897;28;20202;-59
2022/08/02 07:41:51;;;;;;;2.80;2.60;;;;;;;40.79;21.79;99142.66;5111569;28;20236;-60
2022/08/02 07:44:18;;;;;;;3.58;2.30;;;;;;;41.40;21.39;99146.25;5111555;28;20200;-61
2022/08/02 07:46:45;;;;;;;3.40;2.60;;;;;;;41.45;21.79;99145.47;5108750;28;20302;-61
2022/08/02 07:49:17;;;;;;;4.65;2.22;;;;;;;41.75;21.23;99139.63;5110947;28;20221;-61
2022/08/02 07:51:45;;;;;;;4.05;2.10;;;;;;;41.43;21.03;99139.47;5110859;28;20245;-62
2022/08/02 07:54:13;;;;;;;2.80;2.38;;;;;;;41.68;20.85;99148.78;5111440;28;20224;-62
2022/08/02 07:56:40;;;;;;;1.98;1.88;;;;;;;41.66;21.07;99142.78;5111147;28;20305;-61
2022/08/02 07:59:09;;;;;;;2.78;2.38;;;;;;;41.92;20.68;99156.69;5111201;27;20301;-62
2022/08/02 08:01:36;;;;;;;4.70;2.15;;;;;;;41.89;20.80;99147.13;5111396;28;20316;-62
2022/08/02 08:04:03;;;;;;;2.58;1.90;;;;;;;42.30;20.56;99145.66;5110735;28;20214;-61
2022/08/02 08:06:30;;;;;;;4.28;2.10;;;;;;;42.65;19.77;99144.31;5111412;28;20194;-62
2022/08/02 08:08:59;;;;;;;2.67;1.92;;;;;;;42.65;19.84;99155.25;5111096;28;20583;-62
2022/08/02 08:11:26;;;;;;;2.63;2.22;;;;;;;42.56;20.00;99160.34;5110660;28;20296;-60
2022/08/02 08:13:53;;;;;;;4.25;1.83;;;;;;;42.69;19.56;99154.44;5111277;28;20284;-60
2022/08/02 08:16:20;;;;;;;1.45;1.42;;;;;;;42.80;19.18;99155.34;5111255;28;20218;-60
2022/08/02 08:18:47;;;;;;;2.83;1.63;;;;;;;42.15;20.10;99156.41;5110169;28;20604;-60
2022/08/02 08:21:14;;;;;;;2.80;1.75;;;;;;;42.25;20.85;99155.69;5090723;28;20195;-61
2022/08/02 08:23:41;;;;;;;1.95;1.70;;;;;;;41.99;20.32;99144.50;5090479;28;20203;-59
2022/08/02 08:26:09;;;;;;;1.85;1.75;;;;;;;42.28;20.12;99158.72;5090917;28;20675;-61
2022/08/02 08:28:36;;;;;;;1.42;1.35;;;;;;;41.99;20.29;99160.09;5090644;28;20206;-62
2022/08/02 08:31:03;;;;;;;1.63;1.52;;;;;;;40.54;21.03;99162.09;5090726;28;20312;-63
2022/08/02 08:33:30;;;;;;;1.38;1.38;;;;;;;39.69;22.15;99155.84;5090574;28;20283;-61
2022/08/02 08:35:57;;;;;;;1.20;1.20;;;;;;;39.97;22.97;99150.44;5089770;28;20238;-61
2022/08/02 08:38:24;;;;;;;1.23;1.17;;;;;;;39.43;22.28;99149.91;5090381;28;20567;-59
2022/08/02 08:40:51;;;;;;;1.30;1.20;;;;;;;39.55;23.06;99147.16;5090326;28;20321;-60
2022/08/02 08:43:19;;;;;;;1.98;1.50;;;;;;;39.51;23.52;99148.69;5090354;28;20194;-61
2022/08/02 08:45:48;;;;;;;1.30;1.30;;;;;;;38.73;23.31;99138.22;5090364;28;20198;-60
2022/08/02 08:48:17;;;;;;;1.55;1.45;;;;;;;38.76;23.22;99143.19;5090401;28;20569;-61
2022/08/02 08:50:50;;;;;;;1.33;1.33;;;;;;;38.60;23.88;99144.72;5090323;28;20201;-60
2022/08/02 08:53:20;;;;;;;3.60;1.40;;;;;;;38.35;24.17;99144.06;5090247;28;20202;-61
2022/08/02 08:55:48;;;;;;;2.05;1.25;;;;;;;37.81;24.42;99145.03;5090383;28;20194;-60
2022/08/02 08:58:15;;;;;;;1.67;1.27;;;;;;;37.55;25.75;99128.03;5090070;28;20194;-61
2022/08/02 09:00:43;;;;;;;1.10;1.10;;;;;;;37.66;24.56;99143.56;5090131;28;20199;-60
2022/08/02 09:03:10;;;;;;;1.65;1.10;;;;;;;37.21;25.49;99140.31;5090404;28;20293;-59
2022/08/02 09:05:39;;;;;;;1.25;1.15;;;;;;;37.19;25.60;99136.19;5089943;28;20724;-59
2022/08/02 09:08:06;;;;;;;1.33;1.33;;;;;;;37.07;25.13;99130.66;5089946;28;20204;-59
2022/08/02 09:10:36;;;;;;;1.80;1.58;;;;;;;37.22;24.46;99127.63;5097191;28;20237;-59
2022/08/02 09:13:14;;;;;;;0.90;0.90;;;;;;;37.57;24.41;99134.06;5110279;28;20191;-58
2022/08/02 09:15:44;;;;;;;1.15;1.15;;;;;;;37.30;24.62;99130.00;5110454;28;20581;-59
2022/08/02 09:18:12;;;;;;;1.35;1.30;;;;;;;37.49;24.37;99130.81;5110179;28;20232;-59
2022/08/02 09:20:56;;;;;;;1.50;1.40;;;;;;;37.54;24.75;99120.97;5110423;28;20202;-59
2022/08/02 09:23:24;;;;;;;3.00;1.25;;;;;;;37.82;25.16;99125.81;5106583;28;20182;-59
2022/08/02 09:25:57;;;;;;;1.77;1.30;;;;;;;38.00;24.27;99127.66;5099453;27;20589;-59
2022/08/02 09:28:28;;;;;;;2.95;2.00;;;;;;;37.71;24.18;99113.06;5099035;28;20195;-60
2022/08/02 09:31:04;;;;;;;1.60;1.50;;;;;;;36.77;26.04;99118.91;5101301;28;20194;-59
2022/08/02 09:33:31;;;;;;;2.08;1.77;;;;;;;36.74;26.30;99109.34;5109963;28;20225;-59
2022/08/02 09:36:03;;;;;;;2.33;2.15;;;;;;;37.41;25.99;99116.53;5109913;28;20663;-58
2022/08/02 09:38:31;;;;;;;2.75;2.55;;;;;;;37.99;25.28;99113.28;5109841;28;20195;-59
2022/08/02 09:40:58;;;;;;;2.42;2.20;;;;;;;38.57;24.09;99115.34;5097474;28;20226;-59
2022/08/02 09:43:39;;;;;;;1.60;1.60;;;;;;;37.80;25.05;99119.84;5089862;28;20297;-59
2022/08/02 09:46:15;;;;;;;1.67;1.67;;;;;;;37.72;25.03;99112.84;5089713;28;20256;-59
2022/08/02 09:48:50;;;;;;;2.15;2.05;;;;;;;38.14;24.33;99118.31;5093124;28;20286;-60
2022/08/02 09:51:22;;;;;;;1.80;1.70;;;;;;;38.48;23.96;99116.72;5093704;28;20660;-59
2022/08/02 09:53:50;;;;;;;1.80;1.70;;;;;;;38.44;24.14;99119.06;5093647;28;20195;-62
2022/08/02 09:56:19;;;;;;;2.83;2.40;;;;;;;38.23;24.22;99113.38;5092002;28;20282;-62
2022/08/02 09:58:47;;;;;;;2.90;1.40;;;;;;;37.78;24.26;99106.50;5093574;28;20598;-62
2022/08/02 10:01:15;;;;;;;1.67;1.58;;;;;;;37.39;24.78;99113.22;5093648;28;20199;-62
2022/08/02 10:03:55;;;;;;;1.30;1.30;;;;;;;37.16;24.86;99104.97;5093700;28;20191;-61
2022/08/02 10:06:22;;;;;;;2.00;1.40;;;;;;;37.19;25.00;99101.00;5103171;28;20191;-61
2022/08/02 10:08:50;;;;;;;1.48;1.38;;;;;;;37.33;25.03;99113.31;5102053;28;20191;-61
2022/08/02 10:11:17;;;;;;;1.65;1.25;;;;;;;37.46;24.78;99112.34;5102148;28;20187;-61
2022/08/02 10:13:45;;;;;;;1.20;1.20;;;;;;;37.24;24.92;99107.41;5102908;28;20659;-61
2022/08/02 10:16:13;;;;;;;1.63;1.30;;;;;;;37.20;24.91;99091.81;5103997;28;20194;-62
2022/08/02 10:18:41;;;;;;;1.20;1.20;;;;;;;37.01;25.31;99099.09;5102365;28;20199;-62
2022/08/02 10:21:13;;;;;;;2.70;1.83;;;;;;;36.32;26.04;99092.03;5101934;28;20297;-61
2022/08/02 10:23:43;;;;;;;2.17;1.90;;;;;;;35.44;27.14;99096.47;5113032;28;20202;-61
2022/08/02 10:26:16;;;;;;;2.15;1.80;;;;;;;34.99;27.96;99092.84;5113305;28;20285;-61
2022/08/02 10:28:48;;;;;;;1.88;1.65;;;;;;;34.70;28.72;99097.63;5113474;28;20208;-61
2022/08/02 10:31:19;;;;;;;3.33;1.55;;;;;;;34.64;28.92;99085.00;5113318;28;20199;-61
2022/08/02 10:33:49;;;;;;;3.00;1.63;;;;;;;34.95;28.78;99085.16;5113261;28;20195;-62
2022/08/02 10:36:16;;;;;;;4.85;2.30;;;;;;;34.85;29.13;99086.66;5113201;28;20202;-63
2022/08/02 10:38:45;;;;;;;3.10;1.88;;;;;;;34.33;29.32;99096.38;5101210;28;20211;-62
2022/08/02 10:41:12;;;;;;;3.45;2.15;;;;;;;34.19;29.26;99086.63;5101715;28;20319;-61
2022/08/02 10:43:47;;;;;;;3.22;3.13;;;;;;;33.82;30.39;99086.16;5101899;28;20194;-63
2022/08/02 10:46:38;;;;;;;3.25;2.88;;;;;;;33.76;30.89;99086.97;5102267;28;20190;-60
2022/08/02 10:49:11;;;;;;;2.33;2.08;;;;;;;33.60;30.21;99086.47;5112158;28;20202;-62
2022/08/02 10:52:05;;;;;;;2.42;2.33;;;;;;;33.63;29.87;99097.69;5112979;28;20587;-62
2022/08/02 10:54:35;;;;;;;2.70;2.60;;;;;;;33.59;30.79;99082.97;5112958;28;20198;-59
2022/08/02 10:57:02;;;;;;;3.83;3.47;;;;;;;33.52;31.17;99080.22;5112742;28;20226;-59
2022/08/02 10:59:30;;;;;;;3.17;3.00;;;;;;;33.31;31.13;99076.84;5111890;28;20289;-59
2022/08/02 11:02:01;;;;;;;6.18;2.47;;;;;;;33.01;32.24;99077.09;5112893;28;20226;-58
2022/08/02 11:04:32;;;;;;;1.88;1.77;;;;;;;32.94;32.16;99078.09;5112538;28;20195;-58
2022/08/02 11:07:10;;;;;;;1.73;1.73;;;;;;;32.86;31.79;99076.38;5112481;28;20187;-59
2022/08/02 11:09:38;;;;;;;1.63;1.25;;;;;;;32.65;32.01;99060.28;5112451;28;20285;-59
2022/08/02 11:12:06;;;;;;;3.17;2.10;;;;;;;32.87;32.16;99058.38;5112531;28;20197;-59
2022/08/02 11:14:35;;;;;;;1.35;1.35;;;;;;;33.00;31.57;99064.66;5112452;28;20277;-60
2022/08/02 11:17:13;;;;;;;1.70;1.70;;;;;;;32.95;32.38;99055.56;5112187;28;20226;-58
2022/08/02 11:20:17;;;;;;;1.45;1.45;;;;;;;32.90;31.60;99058.81;5112589;28;20221;-60
2022/08/02 11:22:46;;;;;;;2.60;1.70;;;;;;;32.86;31.81;99062.94;5112234;28;20199;-60
2022/08/02 11:25:33;;;;;;;1.80;1.80;;;;;;;32.89;31.32;99040.19;5112064;28;20203;-59
2022/08/02 11:28:08;;;;;;;2.10;2.00;;;;;;;33.10;31.52;99043.63;5112068;28;20198;-59
2022/08/02 11:30:36;;;;;;;2.25;2.15;;;;;;;33.07;31.96;99041.31;5112135;28;20248;-59
2022/08/02 11:33:04;;;;;;;2.30;1.63;;;;;;;33.33;31.10;99045.19;5112132;28;20648;-59
2022/08/02 11:35:37;;;;;;;1.70;1.60;;;;;;;33.61;30.50;99045.06;5111813;28;20202;-60
2022/08/02 11:38:16;;;;;;;1.83;1.48;;;;;;;33.58;30.19;99049.00;5112121;28;20331;-60
2022/08/02 11:40:43;;;;;;;1.60;1.50;;;;;;;33.59;30.79;99037.22;5111852;28;20252;-60
2022/08/02 11:43:18;;;;;;;1.58;1.48;;;;;;;33.70;29.89;99047.38;5112118;27;20728;-59
2022/08/02 11:45:46;;;;;;;1.60;1.60;;;;;;;33.52;29.71;99042.56;5111801;28;20314;-60